JBU2769 KCLE-KJFK
Flight info
| Callsign | JBU2769 |
|---|---|
| Flight time | 0h 58m |
| Altitude | 31000 |
| Route | KKIDS1 KKIDS DCT TEESY DCT TOSTR DCT SLT J584 FQM T454 SWANK T455 WLKES PUCKY1 |
| Aircraft | A320/M-SDFGHIRWY/LB1 |
Departure
| Time | 2026-05-05 02:50 |
|---|---|
| Airport | Cleveland Hopkins International Airport (KCLE) |
Arrival
| Time | 2026-05-05 03:48 |
|---|---|
| Airport | John F. Kennedy International Airport (KJFK) |
| Time | Latitude | Longitude | Altitude | Speed | Heading |
|---|---|---|---|---|---|
| 2026-05-05 02:11 | 41.40922 | -81.83919 | 777 ft | 0 kts | 314° |
| 2026-05-05 02:39 | 41.40921 | -81.83917 | 779 ft | 2 kts | 314° |
| 2026-05-05 02:39 | 41.40903 | -81.83893 | 779 ft | 3 kts | 315° |
| 2026-05-05 02:39 | 41.40901 | -81.83885 | 779 ft | 4 kts | 172° |
| 2026-05-05 02:40 | 41.40885 | -81.83878 | 779 ft | 0 kts | 162° |
| 2026-05-05 02:42 | 41.40873 | -81.83875 | 779 ft | 3 kts | 175° |
| 2026-05-05 02:42 | 41.40844 | -81.83896 | 779 ft | 6 kts | 220° |
| 2026-05-05 02:42 | 41.40801 | -81.83937 | 779 ft | 8 kts | 207° |
| 2026-05-05 02:43 | 41.40750 | -81.83973 | 780 ft | 9 kts | 208° |
| 2026-05-05 02:43 | 41.40698 | -81.84021 | 781 ft | 9 kts | 217° |
| 2026-05-05 02:43 | 41.40641 | -81.84072 | 781 ft | 10 kts | 213° |
| 2026-05-05 02:43 | 41.40610 | -81.84158 | 781 ft | 11 kts | 267° |
| 2026-05-05 02:44 | 41.40613 | -81.84271 | 781 ft | 13 kts | 275° |
| 2026-05-05 02:44 | 41.40669 | -81.84366 | 781 ft | 14 kts | 337° |
| 2026-05-05 02:44 | 41.40747 | -81.84433 | 781 ft | 14 kts | 359° |
| 2026-05-05 02:44 | 41.40852 | -81.84435 | 781 ft | 16 kts | 359° |
| 2026-05-05 02:45 | 41.40951 | -81.84379 | 779 ft | 16 kts | 2° |
| 2026-05-05 02:45 | 41.41067 | -81.84379 | 779 ft | 17 kts | 359° |
| 2026-05-05 02:45 | 41.41191 | -81.84383 | 779 ft | 17 kts | 359° |
| 2026-05-05 02:45 | 41.41257 | -81.84308 | 779 ft | 13 kts | 57° |
| 2026-05-05 02:46 | 41.41315 | -81.84212 | 781 ft | 14 kts | 50° |
| 2026-05-05 02:46 | 41.41383 | -81.84108 | 781 ft | 15 kts | 36° |
| 2026-05-05 02:46 | 41.41448 | -81.84129 | 781 ft | 3 kts | 321° |
| 2026-05-05 02:46 | 41.41448 | -81.84130 | 781 ft | 0 kts | 321° |
| 2026-05-05 02:48 | 41.41450 | -81.84132 | 781 ft | 2 kts | 321° |
| 2026-05-05 02:48 | 41.41481 | -81.84166 | 779 ft | 9 kts | 320° |
| 2026-05-05 02:48 | 41.41521 | -81.84224 | 778 ft | 4 kts | 256° |
| 2026-05-05 02:48 | 41.41486 | -81.84281 | 777 ft | 16 kts | 230° |
| 2026-05-05 02:49 | 41.41287 | -81.84593 | 783 ft | 75 kts | 229° |
| 2026-05-05 02:49 | 41.40835 | -81.85308 | 780 ft | 125 kts | 230° |
| 2026-05-05 02:49 | 41.40181 | -81.86337 | 811 ft | 162 kts | 227° |
| 2026-05-05 02:49 | 41.39452 | -81.87473 | 1383 ft | 161 kts | 230° |
| 2026-05-05 02:50 | 41.38598 | -81.88431 | 2030 ft | 164 kts | 209° |
| 2026-05-05 02:50 | 41.37418 | -81.88715 | 2440 ft | 188 kts | 184° |
| 2026-05-05 02:50 | 41.36020 | -81.88567 | 2692 ft | 214 kts | 182° |
| 2026-05-05 02:50 | 41.34453 | -81.88408 | 3092 ft | 237 kts | 182° |
| 2026-05-05 02:51 | 41.32770 | -81.88234 | 3844 ft | 246 kts | 183° |
| 2026-05-05 02:51 | 41.31075 | -81.87684 | 4699 ft | 265 kts | 159° |
| 2026-05-05 02:51 | 41.29699 | -81.85894 | 5482 ft | 291 kts | 131° |
| 2026-05-05 02:51 | 41.28655 | -81.83536 | 5889 ft | 298 kts | 126° |
| 2026-05-05 02:52 | 41.27718 | -81.81060 | 5991 ft | 300 kts | 123° |
| 2026-05-05 02:52 | 41.26828 | -81.78559 | 6002 ft | 300 kts | 123° |
| 2026-05-05 02:52 | 41.25937 | -81.76053 | 6011 ft | 300 kts | 123° |
| 2026-05-05 02:52 | 41.25027 | -81.73556 | 6013 ft | 300 kts | 124° |
| 2026-05-05 02:53 | 41.24100 | -81.71078 | 6013 ft | 300 kts | 125° |
| 2026-05-05 02:53 | 41.23159 | -81.68610 | 6013 ft | 299 kts | 125° |
| 2026-05-05 02:53 | 41.22318 | -81.66064 | 6017 ft | 306 kts | 114° |
| 2026-05-05 02:53 | 41.21931 | -81.63233 | 6329 ft | 318 kts | 99° |
| 2026-05-05 02:54 | 41.21730 | -81.60307 | 7191 ft | 319 kts | 100° |
| 2026-05-05 02:54 | 41.21507 | -81.57361 | 8000 ft | 323 kts | 100° |
| 2026-05-05 02:54 | 41.21272 | -81.54378 | 8825 ft | 327 kts | 99° |
| 2026-05-05 02:54 | 41.21029 | -81.51364 | 9633 ft | 330 kts | 100° |
| 2026-05-05 02:55 | 41.20774 | -81.48317 | 10335 ft | 335 kts | 100° |
| 2026-05-05 02:55 | 41.20503 | -81.45137 | 10550 ft | 358 kts | 99° |
| 2026-05-05 02:55 | 41.20376 | -81.41722 | 10694 ft | 383 kts | 90° |
| 2026-05-05 02:55 | 41.20708 | -81.38122 | 10982 ft | 400 kts | 78° |
| 2026-05-05 02:56 | 41.21356 | -81.34503 | 11581 ft | 405 kts | 77° |
| 2026-05-05 02:56 | 41.22001 | -81.30851 | 12252 ft | 408 kts | 77° |
| 2026-05-05 02:56 | 41.22641 | -81.27169 | 12940 ft | 410 kts | 77° |
| 2026-05-05 02:56 | 41.23279 | -81.23465 | 13639 ft | 413 kts | 77° |
| 2026-05-05 02:57 | 41.23921 | -81.19727 | 14200 ft | 416 kts | 77° |
| 2026-05-05 02:57 | 41.24564 | -81.15975 | 14778 ft | 419 kts | 77° |
| 2026-05-05 02:57 | 41.25214 | -81.12188 | 15354 ft | 422 kts | 77° |
| 2026-05-05 02:57 | 41.25867 | -81.08377 | 15946 ft | 424 kts | 77° |
| 2026-05-05 02:58 | 41.26524 | -81.04539 | 16538 ft | 427 kts | 77° |
| 2026-05-05 02:58 | 41.27187 | -81.00680 | 17143 ft | 430 kts | 77° |
| 2026-05-05 02:58 | 41.27853 | -80.96802 | 17761 ft | 432 kts | 77° |
| 2026-05-05 02:58 | 41.28521 | -80.92890 | 18346 ft | 435 kts | 77° |
| 2026-05-05 02:59 | 41.29192 | -80.88948 | 18931 ft | 437 kts | 77° |
| 2026-05-05 02:59 | 41.29857 | -80.85006 | 19544 ft | 438 kts | 77° |
| 2026-05-05 02:59 | 41.30524 | -80.81047 | 20099 ft | 440 kts | 77° |
| 2026-05-05 02:59 | 41.31196 | -80.77061 | 20628 ft | 443 kts | 77° |
| 2026-05-05 03:00 | 41.31876 | -80.73056 | 21108 ft | 446 kts | 77° |
| 2026-05-05 03:00 | 41.32562 | -80.69014 | 21591 ft | 448 kts | 77° |
| 2026-05-05 03:00 | 41.33247 | -80.64958 | 22040 ft | 451 kts | 77° |
| 2026-05-05 03:00 | 41.33930 | -80.60885 | 22459 ft | 453 kts | 77° |
| 2026-05-05 03:01 | 41.34614 | -80.56779 | 22908 ft | 456 kts | 77° |
| 2026-05-05 03:01 | 41.35299 | -80.52647 | 23317 ft | 458 kts | 77° |
| 2026-05-05 03:01 | 41.35986 | -80.48496 | 23702 ft | 460 kts | 77° |
| 2026-05-05 03:01 | 41.36675 | -80.44333 | 24067 ft | 462 kts | 77° |
| 2026-05-05 03:02 | 41.37367 | -80.40145 | 24409 ft | 464 kts | 77° |
| 2026-05-05 03:02 | 41.38060 | -80.35943 | 24717 ft | 467 kts | 77° |
| 2026-05-05 03:02 | 41.38759 | -80.31707 | 25033 ft | 470 kts | 77° |
| 2026-05-05 03:02 | 41.39461 | -80.27448 | 25374 ft | 472 kts | 77° |
| 2026-05-05 03:03 | 41.40162 | -80.23171 | 25713 ft | 474 kts | 77° |
| 2026-05-05 03:03 | 41.40854 | -80.18925 | 26037 ft | 476 kts | 77° |
| 2026-05-05 03:03 | 41.41557 | -80.14612 | 26434 ft | 476 kts | 77° |
| 2026-05-05 03:03 | 41.42154 | -80.10292 | 26938 ft | 474 kts | 83° |
| 2026-05-05 03:04 | 41.42423 | -80.05917 | 27431 ft | 473 kts | 85° |
| 2026-05-05 03:04 | 41.42667 | -80.01550 | 27909 ft | 472 kts | 85° |
| 2026-05-05 03:04 | 41.42910 | -79.97196 | 28408 ft | 471 kts | 85° |
| 2026-05-05 03:04 | 41.43155 | -79.92855 | 28900 ft | 470 kts | 85° |
| 2026-05-05 03:05 | 41.43400 | -79.88529 | 29385 ft | 468 kts | 85° |
| 2026-05-05 03:05 | 41.43644 | -79.84202 | 29873 ft | 468 kts | 85° |
| 2026-05-05 03:05 | 41.43885 | -79.79885 | 30295 ft | 467 kts | 85° |
| 2026-05-05 03:05 | 41.44121 | -79.75576 | 30682 ft | 466 kts | 85° |
| 2026-05-05 03:06 | 41.44356 | -79.71266 | 30810 ft | 467 kts | 85° |
| 2026-05-05 03:06 | 41.44827 | -79.62482 | 30800 ft | 481 kts | 85° |
| 2026-05-05 03:07 | 41.45296 | -79.53567 | 30809 ft | 483 kts | 85° |
| 2026-05-05 03:07 | 41.45761 | -79.44645 | 30811 ft | 483 kts | 85° |
| 2026-05-05 03:08 | 41.46228 | -79.35702 | 30812 ft | 484 kts | 86° |
| 2026-05-05 03:08 | 41.46685 | -79.26745 | 30805 ft | 484 kts | 86° |
| 2026-05-05 03:09 | 41.47129 | -79.17780 | 30813 ft | 484 kts | 86° |
| 2026-05-05 03:09 | 41.47558 | -79.08883 | 30829 ft | 485 kts | 86° |
| 2026-05-05 03:10 | 41.47991 | -78.99903 | 30816 ft | 486 kts | 86° |
| 2026-05-05 03:10 | 41.48419 | -78.90912 | 30818 ft | 486 kts | 86° |
| 2026-05-05 03:11 | 41.48848 | -78.81924 | 30814 ft | 486 kts | 86° |
| 2026-05-05 03:11 | 41.49270 | -78.72928 | 30817 ft | 486 kts | 86° |
| 2026-05-05 03:12 | 41.49673 | -78.63942 | 30825 ft | 486 kts | 86° |
| 2026-05-05 03:12 | 41.50073 | -78.54940 | 30824 ft | 486 kts | 86° |
| 2026-05-05 03:13 | 41.50469 | -78.45938 | 30826 ft | 486 kts | 86° |
| 2026-05-05 03:13 | 41.50712 | -78.36935 | 30830 ft | 486 kts | 88° |
| 2026-05-05 03:14 | 41.50815 | -78.27912 | 30832 ft | 486 kts | 89° |
| 2026-05-05 03:14 | 41.50919 | -78.18896 | 30840 ft | 486 kts | 89° |
| 2026-05-05 03:15 | 41.51064 | -78.09882 | 30842 ft | 486 kts | 88° |
| 2026-05-05 03:15 | 41.51214 | -78.00863 | 30843 ft | 486 kts | 88° |
| 2026-05-05 03:16 | 41.50581 | -77.91978 | 30833 ft | 485 kts | 101° |
| 2026-05-05 03:16 | 41.49325 | -77.83139 | 30836 ft | 485 kts | 101° |
| 2026-05-05 03:17 | 41.48066 | -77.74305 | 30836 ft | 484 kts | 101° |
| 2026-05-05 03:17 | 41.46812 | -77.65489 | 30833 ft | 484 kts | 101° |
| 2026-05-05 03:18 | 41.45549 | -77.56663 | 30839 ft | 484 kts | 101° |
| 2026-05-05 03:18 | 41.44274 | -77.47854 | 30841 ft | 484 kts | 101° |
| 2026-05-05 03:19 | 41.42352 | -77.34648 | 30843 ft | 484 kts | 101° |
| 2026-05-05 03:19 | 41.41075 | -77.25852 | 30839 ft | 483 kts | 101° |
| 2026-05-05 03:20 | 41.39788 | -77.17073 | 30843 ft | 482 kts | 101° |
| 2026-05-05 03:20 | 41.38491 | -77.08331 | 30849 ft | 481 kts | 101° |
| 2026-05-05 03:21 | 41.37187 | -76.99612 | 30847 ft | 480 kts | 101° |
| 2026-05-05 03:21 | 41.36103 | -76.92385 | 30842 ft | 479 kts | 101° |
| 2026-05-05 03:22 | 41.34791 | -76.83692 | 30832 ft | 479 kts | 101° |
| 2026-05-05 03:22 | 41.33709 | -76.74966 | 30824 ft | 478 kts | 94° |
| 2026-05-05 03:23 | 41.33152 | -76.64709 | 30843 ft | 478 kts | 94° |
| 2026-05-05 03:23 | 41.32727 | -76.57329 | 30837 ft | 477 kts | 94° |
| 2026-05-05 03:24 | 41.32206 | -76.48516 | 30837 ft | 478 kts | 94° |
| 2026-05-05 03:24 | 41.31690 | -76.39707 | 30825 ft | 478 kts | 94° |
| 2026-05-05 03:25 | 41.31159 | -76.30894 | 30836 ft | 478 kts | 94° |
| 2026-05-05 03:25 | 41.30621 | -76.22077 | 30841 ft | 478 kts | 94° |
| 2026-05-05 03:26 | 41.30080 | -76.13255 | 30850 ft | 479 kts | 94° |
| 2026-05-05 03:26 | 41.29547 | -76.04428 | 30867 ft | 479 kts | 94° |
| 2026-05-05 03:27 | 41.29003 | -75.95603 | 30861 ft | 479 kts | 94° |
| 2026-05-05 03:27 | 41.28448 | -75.86784 | 30873 ft | 479 kts | 94° |
| 2026-05-05 03:28 | 41.27880 | -75.77963 | 30866 ft | 479 kts | 94° |
| 2026-05-05 03:28 | 41.27019 | -75.69198 | 30875 ft | 479 kts | 104° |
| 2026-05-05 03:29 | 41.24644 | -75.61023 | 30868 ft | 478 kts | 115° |
| 2026-05-05 03:29 | 41.21920 | -75.52911 | 30913 ft | 477 kts | 114° |
| 2026-05-05 03:30 | 41.19243 | -75.44907 | 30605 ft | 478 kts | 114° |
| 2026-05-05 03:30 | 41.17891 | -75.40875 | 30353 ft | 478 kts | 114° |
| 2026-05-05 03:30 | 41.16536 | -75.36842 | 30034 ft | 477 kts | 114° |
| 2026-05-05 03:31 | 41.15179 | -75.32807 | 28739 ft | 484 kts | 115° |
| 2026-05-05 03:31 | 41.13799 | -75.28712 | 27685 ft | 486 kts | 115° |
| 2026-05-05 03:31 | 41.12430 | -75.24650 | 27078 ft | 478 kts | 115° |
| 2026-05-05 03:31 | 41.11081 | -75.20649 | 26381 ft | 474 kts | 115° |
| 2026-05-05 03:32 | 41.09735 | -75.16676 | 25696 ft | 469 kts | 115° |
| 2026-05-05 03:32 | 41.08401 | -75.12752 | 25025 ft | 465 kts | 115° |
| 2026-05-05 03:32 | 41.07073 | -75.08856 | 24354 ft | 462 kts | 115° |
| 2026-05-05 03:32 | 41.05757 | -75.04994 | 23694 ft | 459 kts | 115° |
| 2026-05-05 03:33 | 41.04446 | -75.01147 | 22954 ft | 456 kts | 115° |
| 2026-05-05 03:33 | 41.03151 | -74.97347 | 22314 ft | 450 kts | 116° |
| 2026-05-05 03:33 | 41.01869 | -74.93591 | 21669 ft | 446 kts | 116° |
| 2026-05-05 03:33 | 41.00598 | -74.89864 | 21036 ft | 441 kts | 115° |
| 2026-05-05 03:34 | 40.99591 | -74.86048 | 20425 ft | 440 kts | 105° |
| 2026-05-05 03:34 | 40.99038 | -74.82080 | 19836 ft | 437 kts | 99° |
| 2026-05-05 03:34 | 40.98591 | -74.78109 | 19266 ft | 435 kts | 100° |
| 2026-05-05 03:34 | 40.98133 | -74.74165 | 18695 ft | 433 kts | 100° |
| 2026-05-05 03:35 | 40.97665 | -74.70242 | 18131 ft | 431 kts | 101° |
| 2026-05-05 03:35 | 40.97195 | -74.66328 | 17524 ft | 429 kts | 100° |
| 2026-05-05 03:35 | 40.96733 | -74.62454 | 17028 ft | 424 kts | 100° |
| 2026-05-05 03:35 | 40.96274 | -74.58612 | 16444 ft | 421 kts | 100° |
| 2026-05-05 03:36 | 40.95818 | -74.54789 | 15868 ft | 419 kts | 100° |
| 2026-05-05 03:36 | 40.95366 | -74.50991 | 15260 ft | 417 kts | 100° |
| 2026-05-05 03:36 | 40.94917 | -74.47218 | 14658 ft | 415 kts | 99° |
| 2026-05-05 03:36 | 40.94467 | -74.43453 | 14033 ft | 414 kts | 99° |
| 2026-05-05 03:37 | 40.93979 | -74.39721 | 13047 ft | 411 kts | 102° |
| 2026-05-05 03:37 | 40.93377 | -74.36075 | 12212 ft | 397 kts | 104° |
| 2026-05-05 03:37 | 40.92725 | -74.32618 | 11592 ft | 379 kts | 105° |
| 2026-05-05 03:37 | 40.92073 | -74.29317 | 10803 ft | 366 kts | 106° |
| 2026-05-05 03:38 | 40.91430 | -74.26071 | 10263 ft | 354 kts | 106° |
| 2026-05-05 03:38 | 40.90841 | -74.23035 | 10134 ft | 329 kts | 105° |
| 2026-05-05 03:38 | 40.90305 | -74.20205 | 9796 ft | 316 kts | 105° |
| 2026-05-05 03:38 | 40.89778 | -74.17375 | 9214 ft | 312 kts | 105° |
| 2026-05-05 03:39 | 40.89263 | -74.14591 | 8816 ft | 311 kts | 105° |
| 2026-05-05 03:39 | 40.88763 | -74.11871 | 8517 ft | 308 kts | 105° |
| 2026-05-05 03:39 | 40.88257 | -74.09121 | 8194 ft | 307 kts | 106° |
| 2026-05-05 03:39 | 40.87753 | -74.06391 | 7861 ft | 305 kts | 106° |
| 2026-05-05 03:40 | 40.87256 | -74.03683 | 7548 ft | 304 kts | 106° |
| 2026-05-05 03:40 | 40.86756 | -74.00970 | 7233 ft | 302 kts | 107° |
| 2026-05-05 03:40 | 40.86249 | -73.98244 | 6919 ft | 300 kts | 107° |
| 2026-05-05 03:40 | 40.85751 | -73.95575 | 6608 ft | 298 kts | 106° |
| 2026-05-05 03:41 | 40.85254 | -73.92927 | 6375 ft | 294 kts | 107° |
| 2026-05-05 03:41 | 40.84772 | -73.90350 | 6159 ft | 289 kts | 107° |
| 2026-05-05 03:41 | 40.84281 | -73.87743 | 5653 ft | 295 kts | 107° |
| 2026-05-05 03:41 | 40.83783 | -73.85094 | 5136 ft | 300 kts | 108° |
| 2026-05-05 03:42 | 40.83285 | -73.82437 | 4601 ft | 295 kts | 108° |
| 2026-05-05 03:42 | 40.82798 | -73.79830 | 4089 ft | 290 kts | 108° |
| 2026-05-05 03:42 | 40.82326 | -73.77313 | 3900 ft | 272 kts | 108° |
| 2026-05-05 03:42 | 40.81890 | -73.74979 | 3841 ft | 251 kts | 109° |
| 2026-05-05 03:43 | 40.81493 | -73.72859 | 3756 ft | 232 kts | 109° |
| 2026-05-05 03:43 | 40.81094 | -73.70854 | 3697 ft | 213 kts | 116° |
| 2026-05-05 03:43 | 40.80427 | -73.69205 | 3573 ft | 195 kts | 135° |
| 2026-05-05 03:43 | 40.79533 | -73.68018 | 3492 ft | 176 kts | 152° |
| 2026-05-05 03:44 | 40.78527 | -73.67248 | 3408 ft | 159 kts | 166° |
| 2026-05-05 03:44 | 40.77490 | -73.66851 | 3136 ft | 156 kts | 179° |
| 2026-05-05 03:44 | 40.76392 | -73.66807 | 2767 ft | 159 kts | 191° |
| 2026-05-05 03:44 | 40.75324 | -73.67131 | 2498 ft | 156 kts | 204° |
| 2026-05-05 03:45 | 40.74373 | -73.67767 | 2275 ft | 151 kts | 211° |
| 2026-05-05 03:45 | 40.73481 | -73.68466 | 2070 ft | 147 kts | 211° |
| 2026-05-05 03:45 | 40.72615 | -73.69146 | 1874 ft | 142 kts | 211° |
| 2026-05-05 03:45 | 40.71779 | -73.69802 | 1701 ft | 139 kts | 211° |
| 2026-05-05 03:46 | 40.70951 | -73.70451 | 1503 ft | 138 kts | 211° |
| 2026-05-05 03:46 | 40.70122 | -73.71100 | 1324 ft | 138 kts | 210° |
| 2026-05-05 03:46 | 40.69298 | -73.71746 | 1134 ft | 138 kts | 210° |
| 2026-05-05 03:46 | 40.68476 | -73.72390 | 952 ft | 138 kts | 210° |
| 2026-05-05 03:47 | 40.67641 | -73.73052 | 753 ft | 138 kts | 210° |
| 2026-05-05 03:47 | 40.66829 | -73.73690 | 525 ft | 136 kts | 206° |
| 2026-05-05 03:47 | 40.66019 | -73.74321 | 406 ft | 135 kts | 209° |
| 2026-05-05 03:47 | 40.65209 | -73.74959 | 247 ft | 136 kts | 208° |
| 2026-05-05 03:48 | 40.64390 | -73.75593 | 42 ft | 134 kts | 210° |
| 2026-05-05 03:48 | 40.63704 | -73.76127 | 24 ft | 93 kts | 210° |
| 2026-05-05 03:48 | 40.63295 | -73.76445 | 22 ft | 44 kts | 210° |
| 2026-05-05 03:48 | 40.63071 | -73.76646 | 21 ft | 37 kts | 224° |
| 2026-05-05 03:49 | 40.62929 | -73.76898 | 22 ft | 29 kts | 253° |
| 2026-05-05 03:49 | 40.62998 | -73.77027 | 21 ft | 17 kts | 355° |
| 2026-05-05 03:49 | 40.63112 | -73.76968 | 22 ft | 18 kts | 19° |
| 2026-05-05 03:49 | 40.63240 | -73.76946 | 22 ft | 19 kts | 0° |
| 2026-05-05 03:50 | 40.63385 | -73.76940 | 22 ft | 22 kts | 5° |
| 2026-05-05 03:50 | 40.63537 | -73.76919 | 25 ft | 22 kts | 3° |
| 2026-05-05 03:50 | 40.63694 | -73.76915 | 26 ft | 23 kts | 3° |
| 2026-05-05 03:50 | 40.63864 | -73.76912 | 27 ft | 25 kts | 358° |
| 2026-05-05 03:51 | 40.64047 | -73.76907 | 29 ft | 28 kts | 4° |
| 2026-05-05 03:51 | 40.64256 | -73.76883 | 21 ft | 32 kts | 360° |
| 2026-05-05 03:51 | 40.64465 | -73.76791 | 19 ft | 29 kts | 31° |
| 2026-05-05 03:51 | 40.64597 | -73.76712 | 19 ft | 14 kts | 335° |
| 2026-05-05 03:52 | 40.64643 | -73.76838 | 19 ft | 16 kts | 297° |
| 2026-05-05 03:52 | 40.64578 | -73.76935 | 19 ft | 16 kts | 211° |
| 2026-05-05 03:52 | 40.64470 | -73.76990 | 19 ft | 18 kts | 180° |
| 2026-05-05 03:52 | 40.64433 | -73.77100 | 23 ft | 16 kts | 282° |
| 2026-05-05 03:53 | 40.64471 | -73.77240 | 24 ft | 16 kts | 294° |
| 2026-05-05 03:53 | 40.64472 | -73.77397 | 23 ft | 18 kts | 264° |
| 2026-05-05 03:53 | 40.64405 | -73.77491 | 24 ft | 15 kts | 214° |
| 2026-05-05 03:53 | 40.64421 | -73.77550 | 23 ft | 7 kts | 330° |
| 2026-05-05 03:54 | 40.64432 | -73.77559 | 25 ft | 0 kts | 329° |